createdAt,value
2019-05-20T00:00:22.541Z,12.64
2019-05-20T00:05:22.481Z,12.64
2019-05-20T00:10:22.432Z,12.79
2019-05-20T00:15:22.429Z,12.92
2019-05-20T00:20:22.351Z,13.06
2019-05-20T00:25:25.420Z,13.18
2019-05-20T00:30:22.198Z,13.29
2019-05-20T00:35:22.102Z,13.37
2019-05-20T00:40:22.011Z,13.41
2019-05-20T00:45:21.957Z,13.44
2019-05-20T00:50:21.896Z,13.43
2019-05-20T00:55:21.846Z,13.41
2019-05-20T01:00:21.852Z,13.46
2019-05-20T01:05:21.779Z,13.52
2019-05-20T01:10:21.976Z,13.55
2019-05-20T01:15:21.623Z,13.54
2019-05-20T01:20:21.667Z,13.51
2019-05-20T01:25:21.579Z,13.52
2019-05-20T01:30:21.690Z,13.54
2019-05-20T01:35:21.482Z,13.52
2019-05-20T01:40:21.558Z,13.55
2019-05-20T01:45:21.521Z,13.59
2019-05-20T01:50:21.418Z,13.59
2019-05-20T01:55:21.350Z,13.59
2019-05-20T02:00:28.123Z,13.55
2019-05-20T02:05:21.285Z,13.54
2019-05-20T02:10:21.179Z,13.51
2019-05-20T02:15:21.117Z,13.49
2019-05-20T02:20:21.220Z,13.51
2019-05-20T02:25:21.244Z,13.49
2019-05-20T02:30:21.024Z,13.46
2019-05-20T02:35:21.277Z,13.40
2019-05-20T02:40:21.182Z,13.33
2019-05-20T02:45:20.841Z,13.29
2019-05-20T02:50:20.763Z,13.29
2019-05-20T02:55:20.719Z,13.27
2019-05-20T03:00:20.659Z,13.25
2019-05-20T03:05:20.611Z,13.24
2019-05-20T03:10:20.796Z,13.25
2019-05-20T03:15:20.571Z,13.22
2019-05-20T03:20:20.554Z,13.22
2019-05-20T03:25:20.474Z,13.24
2019-05-20T03:30:22.181Z,13.22
2019-05-20T03:35:20.540Z,13.24
2019-05-20T03:40:20.354Z,13.21
2019-05-20T03:45:20.375Z,13.22
2019-05-20T03:50:20.238Z,13.21
2019-05-20T03:55:20.339Z,13.21
2019-05-20T04:00:20.121Z,13.20
2019-05-20T04:05:20.109Z,13.21
2019-05-20T04:10:20.044Z,13.22
2019-05-20T04:15:20.099Z,13.22
2019-05-20T04:20:19.998Z,13.22
2019-05-20T04:25:19.990Z,13.22
2019-05-20T04:30:21.979Z,13.24
2019-05-20T04:35:23.126Z,13.33
2019-05-20T04:40:20.010Z,13.37
2019-05-20T04:45:19.766Z,13.32
2019-05-20T04:50:21.042Z,13.29
2019-05-20T04:55:19.627Z,13.22
2019-05-20T05:00:20.366Z,13.21
2019-05-20T05:05:19.657Z,13.21
2019-05-20T05:10:19.522Z,13.24
2019-05-20T05:15:19.402Z,13.30
2019-05-20T05:20:19.375Z,13.33
2019-05-20T05:25:20.599Z,13.44
2019-05-20T05:30:19.290Z,13.47
2019-05-20T05:35:21.644Z,13.52
2019-05-20T05:40:19.555Z,13.59
2019-05-20T05:45:19.330Z,13.58
2019-05-20T05:50:19.274Z,13.63
2019-05-20T05:55:19.269Z,13.70
2019-05-20T06:00:19.051Z,13.76
2019-05-20T06:05:19.127Z,13.84
2019-05-20T06:10:28.219Z,13.94
2019-05-20T06:15:19.920Z,14.10
2019-05-20T06:20:19.021Z,14.34
2019-05-20T06:25:18.941Z,14.62
2019-05-20T06:30:18.968Z,14.83
2019-05-20T06:35:18.672Z,14.84
2019-05-20T06:40:18.672Z,14.72
2019-05-20T06:45:18.589Z,14.56
2019-05-20T06:50:18.563Z,14.61
2019-05-20T06:55:18.488Z,14.78
2019-05-20T07:00:18.483Z,14.90
2019-05-20T07:05:18.641Z,14.93
2019-05-20T07:10:18.509Z,14.94
2019-05-20T07:15:18.755Z,14.98
2019-05-20T07:20:18.477Z,15.08
2019-05-20T07:25:18.377Z,15.13
2019-05-20T07:30:18.193Z,15.21
2019-05-20T07:35:29.430Z,15.30
2019-05-20T07:40:19.156Z,15.42
2019-05-20T07:45:19.252Z,15.56
2019-05-20T07:50:18.350Z,15.67
2019-05-20T07:55:18.036Z,15.79
2019-05-20T08:00:17.899Z,15.97
2019-05-20T08:05:17.859Z,16.16
2019-05-20T08:10:17.939Z,16.30
2019-05-20T08:15:17.779Z,16.41
2019-05-20T08:20:17.781Z,16.60
2019-05-20T08:25:17.790Z,16.85
2019-05-20T08:30:18.031Z,16.98
2019-05-20T08:35:17.719Z,17.07
2019-05-20T08:40:17.605Z,17.11
2019-05-20T08:45:17.587Z,17.10
2019-05-20T08:50:17.491Z,17.10
2019-05-20T08:55:17.535Z,16.96
2019-05-20T09:00:22.986Z,16.81
2019-05-20T09:05:18.468Z,16.81
2019-05-20T09:10:18.355Z,16.77
2019-05-20T09:15:17.243Z,16.71
2019-05-20T09:20:18.479Z,16.67
2019-05-20T09:25:18.245Z,16.74
2019-05-20T09:30:17.436Z,16.95
2019-05-20T09:35:17.093Z,17.29
2019-05-20T09:40:17.055Z,17.17
2019-05-20T09:45:17.042Z,16.96
2019-05-20T09:50:17.028Z,16.89
2019-05-20T09:55:16.891Z,16.83
2019-05-20T10:00:16.904Z,16.96
2019-05-20T10:05:16.813Z,17.23
2019-05-20T10:10:16.774Z,17.74
2019-05-20T10:15:16.742Z,18.06
2019-05-20T10:20:16.703Z,18.09
2019-05-20T10:25:16.617Z,18.12
2019-05-20T10:30:16.604Z,18.24
2019-05-20T10:35:16.556Z,18.02
2019-05-20T10:40:16.514Z,18.13
2019-05-20T10:45:16.534Z,18.83
2019-05-20T10:50:16.408Z,19.95
2019-05-20T10:55:17.360Z,20.62
2019-05-20T11:00:16.368Z,20.69
2019-05-20T11:05:16.692Z,20.51
2019-05-20T11:10:16.298Z,20.53
2019-05-20T11:15:16.280Z,20.79
2019-05-20T11:20:16.240Z,20.51
2019-05-20T11:25:16.179Z,19.75
2019-05-20T11:30:16.266Z,19.72
2019-05-20T11:35:16.167Z,19.90
2019-05-20T11:40:16.054Z,19.57
2019-05-20T11:45:16.180Z,18.90
2019-05-20T11:50:16.034Z,18.97
2019-05-20T11:55:16.649Z,18.58
2019-05-20T12:00:15.918Z,18.40
2019-05-20T12:05:15.894Z,18.58
2019-05-20T12:10:15.787Z,18.39
2019-05-20T12:15:15.815Z,18.37
2019-05-20T12:20:15.714Z,18.54
2019-05-20T12:25:15.688Z,18.80
2019-05-20T12:30:15.689Z,18.92
2019-05-20T12:35:15.744Z,18.74
2019-05-20T12:40:15.577Z,18.64
2019-05-20T12:45:15.506Z,18.92
2019-05-20T12:50:15.538Z,19.33
2019-05-20T12:55:15.425Z,19.51
2019-05-20T13:00:15.397Z,19.05
2019-05-20T13:05:15.317Z,18.37
2019-05-20T13:10:28.905Z,18.12
2019-05-20T13:15:16.237Z,18.12
2019-05-20T13:20:15.343Z,17.97
2019-05-20T13:25:15.519Z,18.03
2019-05-20T13:30:15.151Z,18.39
2019-05-20T13:35:15.098Z,18.34
2019-05-20T13:40:15.631Z,18.15
2019-05-20T13:45:15.005Z,17.79
2019-05-20T13:50:14.981Z,17.70
2019-05-20T13:55:15.247Z,17.64
2019-05-20T14:00:15.016Z,17.53
2019-05-20T14:05:14.928Z,17.53
2019-05-20T14:10:14.790Z,17.40
2019-05-20T14:15:14.865Z,17.06
2019-05-20T14:20:14.801Z,16.86
2019-05-20T14:25:14.661Z,16.90
2019-05-20T14:30:14.632Z,16.96
2019-05-20T14:35:14.594Z,16.77
2019-05-20T14:40:14.848Z,16.65
2019-05-20T14:45:14.480Z,16.77
2019-05-20T14:50:14.549Z,16.92
2019-05-20T14:55:14.371Z,16.99
2019-05-20T15:00:14.352Z,16.90
2019-05-20T15:05:14.478Z,16.71
2019-05-20T15:10:14.259Z,16.62
2019-05-20T15:15:14.259Z,16.67
2019-05-20T15:20:14.260Z,16.78
2019-05-20T15:25:14.182Z,16.70
2019-05-20T15:30:14.108Z,16.58
2019-05-20T15:35:14.074Z,16.41
2019-05-20T15:40:14.025Z,16.38
2019-05-20T15:45:14.092Z,16.31
2019-05-20T15:50:14.220Z,16.34
2019-05-20T15:55:13.985Z,16.20
2019-05-20T16:00:14.031Z,16.12
2019-05-20T16:05:13.831Z,15.92
2019-05-20T16:10:14.073Z,15.81
2019-05-20T16:15:13.721Z,15.75
2019-05-20T16:20:13.678Z,15.68
2019-05-20T16:25:13.647Z,15.70
2019-05-20T16:30:13.607Z,15.70
2019-05-20T16:35:13.621Z,15.51
2019-05-20T16:40:13.439Z,15.39
2019-05-20T16:45:13.527Z,15.36
2019-05-20T16:50:13.858Z,15.28
2019-05-20T16:55:13.340Z,15.23
2019-05-20T17:00:29.839Z,15.19
2019-05-20T17:05:14.281Z,15.19
2019-05-20T17:10:14.340Z,15.19
2019-05-20T17:15:13.176Z,15.13
2019-05-20T17:20:13.140Z,15.13
2019-05-20T17:25:13.087Z,15.08
2019-05-20T17:30:13.164Z,15.02
2019-05-20T17:35:13.032Z,14.98
2019-05-20T17:40:12.956Z,14.94
2019-05-20T17:45:12.933Z,14.90
2019-05-20T17:50:12.856Z,14.90
2019-05-20T17:55:12.884Z,14.90
2019-05-20T18:00:12.947Z,14.86
2019-05-20T18:05:14.844Z,14.84
2019-05-20T18:10:12.738Z,14.81
2019-05-20T18:15:12.619Z,14.80
2019-05-20T18:20:12.613Z,14.72
2019-05-20T18:25:12.595Z,14.67
2019-05-20T18:30:12.644Z,14.67
2019-05-20T18:35:12.385Z,14.64
2019-05-20T18:40:14.463Z,14.61
2019-05-20T18:45:13.345Z,14.56
2019-05-20T18:50:12.308Z,14.57
2019-05-20T18:55:12.243Z,14.52
2019-05-20T19:00:12.193Z,14.47
2019-05-20T19:05:12.140Z,14.47
2019-05-20T19:10:12.145Z,14.42
2019-05-20T19:15:12.085Z,14.39
2019-05-20T19:20:12.050Z,14.35
2019-05-20T19:25:12.238Z,14.32
2019-05-20T19:30:11.984Z,14.31
2019-05-20T19:35:11.847Z,14.29
2019-05-20T19:40:11.825Z,14.20
2019-05-20T19:45:11.808Z,14.16
2019-05-20T19:50:12.070Z,14.07
2019-05-20T19:55:11.710Z,14.01
2019-05-20T20:00:11.728Z,13.96
2019-05-20T20:05:12.820Z,13.94
2019-05-20T20:10:11.646Z,13.89
2019-05-20T20:15:11.549Z,13.88
2019-05-20T20:20:11.453Z,13.84
2019-05-20T20:25:11.418Z,13.84
2019-05-20T20:30:11.329Z,13.84
2019-05-20T20:35:11.317Z,13.83
2019-05-20T20:40:11.205Z,13.81
2019-05-20T20:45:11.176Z,13.80
2019-05-20T20:50:11.146Z,13.77
2019-05-20T20:55:11.166Z,13.74
2019-05-20T21:00:11.382Z,13.73
2019-05-20T21:05:11.006Z,13.63
2019-05-20T21:10:11.017Z,13.55
2019-05-20T21:15:10.909Z,13.52
2019-05-20T21:20:10.860Z,13.49
2019-05-20T21:25:11.041Z,13.41
2019-05-20T21:30:10.784Z,13.33
2019-05-20T21:35:10.812Z,13.33
2019-05-20T21:40:10.819Z,13.29
2019-05-20T21:45:10.678Z,13.27
2019-05-20T21:50:10.697Z,13.22
2019-05-20T21:55:10.595Z,13.18
2019-05-20T22:00:10.563Z,13.17
2019-05-20T22:05:10.469Z,13.12
2019-05-20T22:10:10.410Z,13.09
2019-05-20T22:15:10.372Z,13.04
2019-05-20T22:20:10.317Z,13.02
2019-05-20T22:25:10.540Z,13.00
2019-05-20T22:30:10.325Z,12.99
2019-05-20T22:35:10.629Z,12.97
2019-05-20T22:40:10.187Z,12.95
2019-05-20T22:45:10.135Z,12.95
2019-05-20T22:50:10.065Z,12.96
2019-05-20T22:55:10.019Z,12.93
2019-05-20T23:00:10.046Z,12.95
2019-05-20T23:05:10.051Z,12.93
2019-05-20T23:10:10.149Z,12.88
2019-05-20T23:15:09.835Z,12.85
2019-05-20T23:20:09.930Z,12.85
2019-05-20T23:25:09.751Z,12.81
2019-05-20T23:30:09.710Z,12.78
2019-05-20T23:35:09.655Z,12.77
2019-05-20T23:40:09.664Z,12.71
2019-05-20T23:45:09.654Z,12.62
2019-05-20T23:50:09.541Z,12.51
2019-05-20T23:55:09.497Z,12.44
